sensor_id;sensor_type;location;lat;lon;timestamp;P1;durP1;ratioP1;P2;durP2;ratioP2
13406;SDS011;6774;48.208;10.766;2022-11-03T00:01:31;2.83;;;2.73;;
13406;SDS011;6774;48.208;10.766;2022-11-03T00:03:59;3.10;;;2.90;;
13406;SDS011;6774;48.208;10.766;2022-11-03T00:06:27;2.67;;;2.47;;
13406;SDS011;6774;48.208;10.766;2022-11-03T00:08:57;2.50;;;2.40;;
13406;SDS011;6774;48.208;10.766;2022-11-03T00:11:27;3.27;;;3.07;;
13406;SDS011;6774;48.208;10.766;2022-11-03T00:13:55;2.80;;;2.60;;
13406;SDS011;6774;48.208;10.766;2022-11-03T00:16:23;3.43;;;3.20;;
13406;SDS011;6774;48.208;10.766;2022-11-03T00:18:51;2.33;;;2.20;;
13406;SDS011;6774;48.208;10.766;2022-11-03T00:21:19;3.70;;;3.43;;
13406;SDS011;6774;48.208;10.766;2022-11-03T00:23:47;3.03;;;2.93;;
13406;SDS011;6774;48.208;10.766;2022-11-03T00:26:18;2.63;;;2.53;;
13406;SDS011;6774;48.208;10.766;2022-11-03T00:28:47;3.23;;;3.03;;
13406;SDS011;6774;48.208;10.766;2022-11-03T00:31:17;5.17;;;4.77;;
13406;SDS011;6774;48.208;10.766;2022-11-03T00:33:46;4.70;;;4.40;;
13406;SDS011;6774;48.208;10.766;2022-11-03T00:36:16;4.67;;;4.37;;
13406;SDS011;6774;48.208;10.766;2022-11-03T00:38:45;3.93;;;3.70;;
13406;SDS011;6774;48.208;10.766;2022-11-03T00:41:14;4.47;;;4.17;;
13406;SDS011;6774;48.208;10.766;2022-11-03T00:43:44;4.27;;;3.83;;
13406;SDS011;6774;48.208;10.766;2022-11-03T00:46:11;5.17;;;4.83;;
13406;SDS011;6774;48.208;10.766;2022-11-03T00:48:40;4.00;;;3.70;;
13406;SDS011;6774;48.208;10.766;2022-11-03T00:51:09;3.97;;;3.77;;
13406;SDS011;6774;48.208;10.766;2022-11-03T00:53:38;4.20;;;3.87;;
13406;SDS011;6774;48.208;10.766;2022-11-03T00:56:08;4.23;;;4.00;;
13406;SDS011;6774;48.208;10.766;2022-11-03T00:58:39;3.23;;;3.03;;
13406;SDS011;6774;48.208;10.766;2022-11-03T01:01:11;4.50;;;4.20;;
13406;SDS011;6774;48.208;10.766;2022-11-03T01:03:40;3.00;;;2.90;;
13406;SDS011;6774;48.208;10.766;2022-11-03T01:06:30;4.47;;;4.07;;
13406;SDS011;6774;48.208;10.766;2022-11-03T01:09:16;3.60;;;3.20;;
13406;SDS011;6774;48.208;10.766;2022-11-03T01:11:47;3.53;;;3.33;;
13406;SDS011;6774;48.208;10.766;2022-11-03T01:14:19;3.47;;;3.27;;
13406;SDS011;6774;48.208;10.766;2022-11-03T01:16:49;2.67;;;2.47;;
13406;SDS011;6774;48.208;10.766;2022-11-03T01:19:18;5.47;;;4.97;;
13406;SDS011;6774;48.208;10.766;2022-11-03T01:21:48;2.83;;;2.73;;
13406;SDS011;6774;48.208;10.766;2022-11-03T01:24:16;3.93;;;3.63;;
13406;SDS011;6774;48.208;10.766;2022-11-03T01:26:44;3.60;;;3.40;;
13406;SDS011;6774;48.208;10.766;2022-11-03T01:29:12;3.57;;;3.30;;
13406;SDS011;6774;48.208;10.766;2022-11-03T01:31:40;3.47;;;3.27;;
13406;SDS011;6774;48.208;10.766;2022-11-03T01:34:11;3.77;;;3.57;;
13406;SDS011;6774;48.208;10.766;2022-11-03T01:36:41;3.73;;;2.63;;
13406;SDS011;6774;48.208;10.766;2022-11-03T01:39:09;3.63;;;3.43;;
13406;SDS011;6774;48.208;10.766;2022-11-03T01:41:38;5.23;;;4.73;;
13406;SDS011;6774;48.208;10.766;2022-11-03T01:47:04;5.83;;;5.43;;
13406;SDS011;6774;48.208;10.766;2022-11-03T01:49:42;4.67;;;4.27;;
13406;SDS011;6774;48.208;10.766;2022-11-03T01:52:14;5.80;;;5.40;;
13406;SDS011;6774;48.208;10.766;2022-11-03T01:54:47;4.07;;;3.80;;
13406;SDS011;6774;48.208;10.766;2022-11-03T01:57:20;3.97;;;3.67;;
13406;SDS011;6774;48.208;10.766;2022-11-03T01:59:52;4.27;;;3.97;;
13406;SDS011;6774;48.208;10.766;2022-11-03T02:02:24;5.57;;;5.07;;
13406;SDS011;6774;48.208;10.766;2022-11-03T02:04:54;3.87;;;3.53;;
13406;SDS011;6774;48.208;10.766;2022-11-03T02:07:27;4.20;;;3.90;;
13406;SDS011;6774;48.208;10.766;2022-11-03T02:10:00;4.07;;;3.87;;
13406;SDS011;6774;48.208;10.766;2022-11-03T02:12:28;3.93;;;3.73;;
13406;SDS011;6774;48.208;10.766;2022-11-03T02:14:57;4.57;;;4.27;;
13406;SDS011;6774;48.208;10.766;2022-11-03T02:17:29;4.43;;;4.07;;
13406;SDS011;6774;48.208;10.766;2022-11-03T02:20:02;4.10;;;3.83;;
13406;SDS011;6774;48.208;10.766;2022-11-03T02:25:36;4.00;;;3.80;;
13406;SDS011;6774;48.208;10.766;2022-11-03T02:28:08;4.80;;;4.50;;
13406;SDS011;6774;48.208;10.766;2022-11-03T02:30:39;3.20;;;3.00;;
13406;SDS011;6774;48.208;10.766;2022-11-03T02:33:12;5.23;;;3.60;;
13406;SDS011;6774;48.208;10.766;2022-11-03T02:35:52;3.70;;;3.40;;
13406;SDS011;6774;48.208;10.766;2022-11-03T02:38:25;3.60;;;3.40;;
13406;SDS011;6774;48.208;10.766;2022-11-03T02:40:59;3.40;;;3.20;;
13406;SDS011;6774;48.208;10.766;2022-11-03T02:43:30;3.80;;;3.60;;
13406;SDS011;6774;48.208;10.766;2022-11-03T02:45:58;3.43;;;3.23;;
13406;SDS011;6774;48.208;10.766;2022-11-03T02:48:27;4.37;;;4.17;;
13406;SDS011;6774;48.208;10.766;2022-11-03T02:50:55;3.53;;;3.33;;
13406;SDS011;6774;48.208;10.766;2022-11-03T02:53:23;4.53;;;4.20;;
13406;SDS011;6774;48.208;10.766;2022-11-03T02:55:59;4.70;;;4.40;;
13406;SDS011;6774;48.208;10.766;2022-11-03T02:58:33;3.80;;;3.60;;
13406;SDS011;6774;48.208;10.766;2022-11-03T03:01:06;4.83;;;4.50;;
13406;SDS011;6774;48.208;10.766;2022-11-03T03:03:41;3.90;;;3.20;;
13406;SDS011;6774;48.208;10.766;2022-11-03T03:06:15;5.23;;;4.73;;
13406;SDS011;6774;48.208;10.766;2022-11-03T03:08:50;3.50;;;3.30;;
13406;SDS011;6774;48.208;10.766;2022-11-03T03:11:24;6.07;;;5.67;;
13406;SDS011;6774;48.208;10.766;2022-11-03T03:14:05;3.80;;;3.50;;
13406;SDS011;6774;48.208;10.766;2022-11-03T03:16:39;4.93;;;4.50;;
13406;SDS011;6774;48.208;10.766;2022-11-03T03:19:13;4.60;;;4.20;;
13406;SDS011;6774;48.208;10.766;2022-11-03T03:21:49;6.40;;;5.90;;
13406;SDS011;6774;48.208;10.766;2022-11-03T03:24:22;4.40;;;4.10;;
13406;SDS011;6774;48.208;10.766;2022-11-03T03:26:56;3.10;;;2.90;;
13406;SDS011;6774;48.208;10.766;2022-11-03T03:29:28;3.17;;;3.00;;
13406;SDS011;6774;48.208;10.766;2022-11-03T03:32:02;2.90;;;2.70;;
13406;SDS011;6774;48.208;10.766;2022-11-03T03:34:35;2.00;;;1.90;;
13406;SDS011;6774;48.208;10.766;2022-11-03T03:37:07;2.73;;;2.53;;
13406;SDS011;6774;48.208;10.766;2022-11-03T03:39:39;3.73;;;3.50;;
13406;SDS011;6774;48.208;10.766;2022-11-03T03:42:14;2.43;;;2.33;;
13406;SDS011;6774;48.208;10.766;2022-11-03T03:44:43;3.07;;;2.87;;
13406;SDS011;6774;48.208;10.766;2022-11-03T03:47:13;3.47;;;3.17;;
13406;SDS011;6774;48.208;10.766;2022-11-03T03:49:46;2.17;;;2.07;;
13406;SDS011;6774;48.208;10.766;2022-11-03T03:52:14;2.70;;;2.13;;
13406;SDS011;6774;48.208;10.766;2022-11-03T03:54:42;3.73;;;2.67;;
13406;SDS011;6774;48.208;10.766;2022-11-03T03:57:11;3.47;;;3.27;;
13406;SDS011;6774;48.208;10.766;2022-11-03T03:59:43;2.37;;;2.17;;
13406;SDS011;6774;48.208;10.766;2022-11-03T04:02:13;2.10;;;2.00;;
13406;SDS011;6774;48.208;10.766;2022-11-03T04:04:41;3.03;;;2.93;;
13406;SDS011;6774;48.208;10.766;2022-11-03T04:07:09;4.43;;;2.47;;
13406;SDS011;6774;48.208;10.766;2022-11-03T04:09:55;2.83;;;2.53;;
13406;SDS011;6774;48.208;10.766;2022-11-03T04:12:25;2.47;;;2.30;;
13406;SDS011;6774;48.208;10.766;2022-11-03T04:15:11;2.23;;;2.13;;
13406;SDS011;6774;48.208;10.766;2022-11-03T04:17:57;2.10;;;2.00;;
13406;SDS011;6774;48.208;10.766;2022-11-03T04:20:43;1.87;;;1.77;;
13406;SDS011;6774;48.208;10.766;2022-11-03T04:23:28;2.23;;;2.13;;
13406;SDS011;6774;48.208;10.766;2022-11-03T04:25:56;2.23;;;2.13;;
13406;SDS011;6774;48.208;10.766;2022-11-03T04:28:27;2.20;;;2.10;;
13406;SDS011;6774;48.208;10.766;2022-11-03T04:30:56;2.30;;;2.20;;
13406;SDS011;6774;48.208;10.766;2022-11-03T04:33:25;2.10;;;2.00;;
13406;SDS011;6774;48.208;10.766;2022-11-03T04:35:53;1.90;;;1.80;;
13406;SDS011;6774;48.208;10.766;2022-11-03T04:38:25;2.70;;;2.50;;
13406;SDS011;6774;48.208;10.766;2022-11-03T04:40:54;2.50;;;2.30;;
13406;SDS011;6774;48.208;10.766;2022-11-03T04:43:31;4.97;;;4.73;;
13406;SDS011;6774;48.208;10.766;2022-11-03T04:46:00;4.37;;;4.07;;
13406;SDS011;6774;48.208;10.766;2022-11-03T04:48:28;3.50;;;3.30;;
13406;SDS011;6774;48.208;10.766;2022-11-03T04:50:56;3.40;;;3.20;;
13406;SDS011;6774;48.208;10.766;2022-11-03T04:53:27;3.27;;;3.07;;
13406;SDS011;6774;48.208;10.766;2022-11-03T04:55:58;2.77;;;2.67;;
13406;SDS011;6774;48.208;10.766;2022-11-03T04:58:34;3.40;;;3.13;;
13406;SDS011;6774;48.208;10.766;2022-11-03T05:01:02;2.63;;;2.53;;
13406;SDS011;6774;48.208;10.766;2022-11-03T05:03:36;2.07;;;1.97;;
13406;SDS011;6774;48.208;10.766;2022-11-03T05:06:10;2.80;;;2.70;;
13406;SDS011;6774;48.208;10.766;2022-11-03T05:08:41;3.40;;;3.20;;
13406;SDS011;6774;48.208;10.766;2022-11-03T05:11:16;2.20;;;2.10;;
13406;SDS011;6774;48.208;10.766;2022-11-03T05:13:48;2.80;;;2.70;;
13406;SDS011;6774;48.208;10.766;2022-11-03T05:16:17;5.33;;;5.03;;
13406;SDS011;6774;48.208;10.766;2022-11-03T05:18:46;4.57;;;4.27;;
13406;SDS011;6774;48.208;10.766;2022-11-03T05:21:16;4.83;;;4.53;;
13406;SDS011;6774;48.208;10.766;2022-11-03T05:23:49;8.03;;;7.33;;
13406;SDS011;6774;48.208;10.766;2022-11-03T05:26:19;5.63;;;5.33;;
13406;SDS011;6774;48.208;10.766;2022-11-03T05:28:52;7.03;;;6.53;;
13406;SDS011;6774;48.208;10.766;2022-11-03T05:31:26;5.67;;;5.33;;
13406;SDS011;6774;48.208;10.766;2022-11-03T05:33:56;6.60;;;6.13;;
13406;SDS011;6774;48.208;10.766;2022-11-03T05:36:26;4.37;;;4.17;;
13406;SDS011;6774;48.208;10.766;2022-11-03T05:38:58;4.00;;;3.77;;
13406;SDS011;6774;48.208;10.766;2022-11-03T05:41:41;2.73;;;2.53;;
13406;SDS011;6774;48.208;10.766;2022-11-03T05:44:14;3.07;;;2.87;;
13406;SDS011;6774;48.208;10.766;2022-11-03T05:46:53;3.57;;;3.37;;
13406;SDS011;6774;48.208;10.766;2022-11-03T05:49:21;2.10;;;1.90;;
13406;SDS011;6774;48.208;10.766;2022-11-03T05:51:49;2.50;;;2.40;;
13406;SDS011;6774;48.208;10.766;2022-11-03T05:54:18;2.20;;;2.10;;
13406;SDS011;6774;48.208;10.766;2022-11-03T05:56:48;1.93;;;1.83;;
13406;SDS011;6774;48.208;10.766;2022-11-03T05:59:18;2.00;;;1.50;;
13406;SDS011;6774;48.208;10.766;2022-11-03T06:01:49;2.63;;;2.10;;
13406;SDS011;6774;48.208;10.766;2022-11-03T06:04:19;2.00;;;1.90;;
13406;SDS011;6774;48.208;10.766;2022-11-03T06:06:51;1.73;;;1.63;;
13406;SDS011;6774;48.208;10.766;2022-11-03T06:09:22;1.90;;;1.80;;
13406;SDS011;6774;48.208;10.766;2022-11-03T06:11:54;1.87;;;1.80;;
13406;SDS011;6774;48.208;10.766;2022-11-03T06:14:27;2.07;;;1.97;;
13406;SDS011;6774;48.208;10.766;2022-11-03T06:16:57;2.67;;;2.57;;
13406;SDS011;6774;48.208;10.766;2022-11-03T06:19:28;2.63;;;2.43;;
13406;SDS011;6774;48.208;10.766;2022-11-03T06:22:01;1.77;;;1.73;;
13406;SDS011;6774;48.208;10.766;2022-11-03T06:24:32;2.50;;;2.40;;
13406;SDS011;6774;48.208;10.766;2022-11-03T06:27:01;6.77;;;2.93;;
13406;SDS011;6774;48.208;10.766;2022-11-03T06:29:31;2.30;;;2.20;;
13406;SDS011;6774;48.208;10.766;2022-11-03T06:32:00;2.97;;;2.77;;
13406;SDS011;6774;48.208;10.766;2022-11-03T06:34:30;2.00;;;1.90;;
13406;SDS011;6774;48.208;10.766;2022-11-03T06:37:14;1.77;;;1.67;;
13406;SDS011;6774;48.208;10.766;2022-11-03T06:39:45;1.97;;;1.87;;
13406;SDS011;6774;48.208;10.766;2022-11-03T06:42:14;1.73;;;1.63;;
13406;SDS011;6774;48.208;10.766;2022-11-03T06:44:48;1.57;;;1.47;;
13406;SDS011;6774;48.208;10.766;2022-11-03T06:47:19;1.60;;;1.50;;
13406;SDS011;6774;48.208;10.766;2022-11-03T06:49:49;1.87;;;1.77;;
13406;SDS011;6774;48.208;10.766;2022-11-03T06:52:22;2.00;;;1.90;;
13406;SDS011;6774;48.208;10.766;2022-11-03T06:54:58;2.47;;;2.37;;
13406;SDS011;6774;48.208;10.766;2022-11-03T06:57:41;2.30;;;2.20;;
13406;SDS011;6774;48.208;10.766;2022-11-03T07:00:15;1.97;;;1.87;;
13406;SDS011;6774;48.208;10.766;2022-11-03T07:03:00;4.37;;;4.10;;
13406;SDS011;6774;48.208;10.766;2022-11-03T07:05:34;4.93;;;4.63;;
13406;SDS011;6774;48.208;10.766;2022-11-03T07:08:03;4.00;;;3.80;;
13406;SDS011;6774;48.208;10.766;2022-11-03T07:10:41;4.03;;;3.73;;
13406;SDS011;6774;48.208;10.766;2022-11-03T07:13:10;7.03;;;4.60;;
13406;SDS011;6774;48.208;10.766;2022-11-03T07:15:42;3.80;;;3.50;;
13406;SDS011;6774;48.208;10.766;2022-11-03T07:18:13;2.30;;;2.20;;
13406;SDS011;6774;48.208;10.766;2022-11-03T07:20:46;3.10;;;2.90;;
13406;SDS011;6774;48.208;10.766;2022-11-03T07:23:14;3.07;;;2.70;;
13406;SDS011;6774;48.208;10.766;2022-11-03T07:25:46;1.93;;;1.77;;
13406;SDS011;6774;48.208;10.766;2022-11-03T07:28:18;2.20;;;2.10;;
13406;SDS011;6774;48.208;10.766;2022-11-03T07:30:48;3.37;;;3.00;;
13406;SDS011;6774;48.208;10.766;2022-11-03T07:33:17;3.50;;;2.70;;
13406;SDS011;6774;48.208;10.766;2022-11-03T07:35:47;2.93;;;2.73;;
13406;SDS011;6774;48.208;10.766;2022-11-03T07:38:36;4.33;;;3.90;;
13406;SDS011;6774;48.208;10.766;2022-11-03T07:41:05;6.50;;;6.00;;
13406;SDS011;6774;48.208;10.766;2022-11-03T07:43:39;5.93;;;5.43;;
13406;SDS011;6774;48.208;10.766;2022-11-03T07:46:08;6.67;;;6.17;;
13406;SDS011;6774;48.208;10.766;2022-11-03T07:48:43;4.63;;;4.23;;
13406;SDS011;6774;48.208;10.766;2022-11-03T07:51:14;2.77;;;2.67;;
13406;SDS011;6774;48.208;10.766;2022-11-03T07:53:47;2.63;;;2.47;;
13406;SDS011;6774;48.208;10.766;2022-11-03T07:56:17;3.50;;;3.30;;
13406;SDS011;6774;48.208;10.766;2022-11-03T07:58:48;3.13;;;2.87;;
13406;SDS011;6774;48.208;10.766;2022-11-03T08:01:24;3.70;;;3.50;;
13406;SDS011;6774;48.208;10.766;2022-11-03T08:03:54;3.13;;;2.93;;
13406;SDS011;6774;48.208;10.766;2022-11-03T08:06:25;3.17;;;2.90;;
13406;SDS011;6774;48.208;10.766;2022-11-03T08:08:53;3.03;;;2.83;;
13406;SDS011;6774;48.208;10.766;2022-11-03T08:11:21;2.37;;;2.27;;
13406;SDS011;6774;48.208;10.766;2022-11-03T08:13:54;3.13;;;2.93;;
13406;SDS011;6774;48.208;10.766;2022-11-03T08:16:24;2.80;;;2.60;;
13406;SDS011;6774;48.208;10.766;2022-11-03T08:18:52;3.80;;;3.50;;
13406;SDS011;6774;48.208;10.766;2022-11-03T08:21:19;5.70;;;5.20;;
13406;SDS011;6774;48.208;10.766;2022-11-03T08:23:47;3.67;;;3.20;;
13406;SDS011;6774;48.208;10.766;2022-11-03T08:26:15;4.00;;;3.17;;
13406;SDS011;6774;48.208;10.766;2022-11-03T08:28:43;2.73;;;2.53;;
13406;SDS011;6774;48.208;10.766;2022-11-03T08:31:11;4.33;;;3.90;;
13406;SDS011;6774;48.208;10.766;2022-11-03T08:33:40;3.80;;;3.50;;
13406;SDS011;6774;48.208;10.766;2022-11-03T08:36:08;3.03;;;2.77;;
13406;SDS011;6774;48.208;10.766;2022-11-03T08:38:37;4.50;;;4.17;;
13406;SDS011;6774;48.208;10.766;2022-11-03T08:41:04;4.10;;;3.80;;
13406;SDS011;6774;48.208;10.766;2022-11-03T08:43:33;3.63;;;3.27;;
13406;SDS011;6774;48.208;10.766;2022-11-03T08:46:01;3.73;;;3.53;;
13406;SDS011;6774;48.208;10.766;2022-11-03T08:48:42;3.90;;;3.60;;
13406;SDS011;6774;48.208;10.766;2022-11-03T08:51:10;5.10;;;4.70;;
13406;SDS011;6774;48.208;10.766;2022-11-03T08:53:39;3.63;;;3.33;;
13406;SDS011;6774;48.208;10.766;2022-11-03T08:56:09;3.07;;;2.87;;
13406;SDS011;6774;48.208;10.766;2022-11-03T08:58:40;5.30;;;4.90;;
13406;SDS011;6774;48.208;10.766;2022-11-03T09:01:08;4.50;;;4.10;;
13406;SDS011;6774;48.208;10.766;2022-11-03T09:03:36;4.30;;;4.10;;
13406;SDS011;6774;48.208;10.766;2022-11-03T09:06:06;5.07;;;4.57;;
13406;SDS011;6774;48.208;10.766;2022-11-03T09:08:35;3.87;;;3.57;;
13406;SDS011;6774;48.208;10.766;2022-11-03T09:11:22;4.13;;;3.60;;
13406;SDS011;6774;48.208;10.766;2022-11-03T09:13:50;3.70;;;3.50;;
13406;SDS011;6774;48.208;10.766;2022-11-03T09:16:18;4.30;;;4.00;;
13406;SDS011;6774;48.208;10.766;2022-11-03T09:18:46;4.17;;;3.97;;
13406;SDS011;6774;48.208;10.766;2022-11-03T09:21:15;3.43;;;3.20;;
13406;SDS011;6774;48.208;10.766;2022-11-03T09:23:43;4.50;;;4.20;;
13406;SDS011;6774;48.208;10.766;2022-11-03T09:26:11;7.67;;;4.20;;
13406;SDS011;6774;48.208;10.766;2022-11-03T09:28:39;5.07;;;4.67;;
13406;SDS011;6774;48.208;10.766;2022-11-03T09:31:07;4.10;;;3.67;;
13406;SDS011;6774;48.208;10.766;2022-11-03T09:33:34;2.57;;;2.37;;
13406;SDS011;6774;48.208;10.766;2022-11-03T09:36:03;3.53;;;2.93;;
13406;SDS011;6774;48.208;10.766;2022-11-03T09:38:32;3.57;;;3.27;;
13406;SDS011;6774;48.208;10.766;2022-11-03T09:41:00;2.90;;;2.50;;
13406;SDS011;6774;48.208;10.766;2022-11-03T09:43:44;5.97;;;5.43;;
13406;SDS011;6774;48.208;10.766;2022-11-03T09:46:13;3.40;;;3.20;;
13406;SDS011;6774;48.208;10.766;2022-11-03T09:48:43;3.87;;;3.67;;
13406;SDS011;6774;48.208;10.766;2022-11-03T09:51:12;2.37;;;2.27;;
13406;SDS011;6774;48.208;10.766;2022-11-03T09:53:46;3.67;;;3.37;;
13406;SDS011;6774;48.208;10.766;2022-11-03T09:56:15;2.70;;;2.50;;
13406;SDS011;6774;48.208;10.766;2022-11-03T09:58:45;3.67;;;3.37;;
13406;SDS011;6774;48.208;10.766;2022-11-03T10:01:20;4.20;;;3.90;;
13406;SDS011;6774;48.208;10.766;2022-11-03T10:03:48;2.93;;;2.73;;
13406;SDS011;6774;48.208;10.766;2022-11-03T10:06:16;3.47;;;3.27;;
13406;SDS011;6774;48.208;10.766;2022-11-03T10:08:45;4.67;;;4.37;;
13406;SDS011;6774;48.208;10.766;2022-11-03T10:11:15;3.03;;;2.80;;
13406;SDS011;6774;48.208;10.766;2022-11-03T10:13:44;3.50;;;3.30;;
13406;SDS011;6774;48.208;10.766;2022-11-03T10:16:16;3.80;;;3.60;;
13406;SDS011;6774;48.208;10.766;2022-11-03T10:18:46;3.33;;;3.13;;
13406;SDS011;6774;48.208;10.766;2022-11-03T10:21:17;3.80;;;2.83;;
13406;SDS011;6774;48.208;10.766;2022-11-03T10:23:47;2.53;;;2.43;;
13406;SDS011;6774;48.208;10.766;2022-11-03T10:26:18;2.77;;;2.57;;
13406;SDS011;6774;48.208;10.766;2022-11-03T10:28:57;4.50;;;2.33;;
13406;SDS011;6774;48.208;10.766;2022-11-03T10:31:30;3.00;;;2.80;;
13406;SDS011;6774;48.208;10.766;2022-11-03T10:34:00;2.50;;;2.30;;
13406;SDS011;6774;48.208;10.766;2022-11-03T10:36:29;2.97;;;2.33;;
13406;SDS011;6774;48.208;10.766;2022-11-03T10:38:59;5.83;;;2.30;;
13406;SDS011;6774;48.208;10.766;2022-11-03T10:41:54;3.67;;;3.47;;
13406;SDS011;6774;48.208;10.766;2022-11-03T10:44:25;3.47;;;3.20;;
13406;SDS011;6774;48.208;10.766;2022-11-03T10:46:54;8.27;;;3.80;;
13406;SDS011;6774;48.208;10.766;2022-11-03T10:49:25;2.77;;;2.57;;
13406;SDS011;6774;48.208;10.766;2022-11-03T10:51:56;4.43;;;2.70;;
13406;SDS011;6774;48.208;10.766;2022-11-03T10:54:34;2.67;;;2.43;;
13406;SDS011;6774;48.208;10.766;2022-11-03T10:57:03;3.30;;;3.00;;
13406;SDS011;6774;48.208;10.766;2022-11-03T10:59:33;3.27;;;2.90;;
13406;SDS011;6774;48.208;10.766;2022-11-03T11:02:09;2.80;;;2.63;;
13406;SDS011;6774;48.208;10.766;2022-11-03T11:04:41;3.23;;;3.03;;
13406;SDS011;6774;48.208;10.766;2022-11-03T11:07:20;3.83;;;3.63;;
13406;SDS011;6774;48.208;10.766;2022-11-03T11:09:51;5.97;;;3.53;;
13406;SDS011;6774;48.208;10.766;2022-11-03T11:12:20;4.00;;;3.70;;
13406;SDS011;6774;48.208;10.766;2022-11-03T11:14:59;4.10;;;3.80;;
13406;SDS011;6774;48.208;10.766;2022-11-03T11:35:19;4.13;;;3.67;;
13406;SDS011;6774;48.208;10.766;2022-11-03T11:44:50;4.17;;;3.17;;
13406;SDS011;6774;48.208;10.766;2022-11-03T11:47:32;5.03;;;3.70;;
13406;SDS011;6774;48.208;10.766;2022-11-03T11:50:22;14.73;;;3.70;;
13406;SDS011;6774;48.208;10.766;2022-11-03T11:52:56;6.90;;;2.40;;
13406;SDS011;6774;48.208;10.766;2022-11-03T11:55:29;4.20;;;3.13;;
13406;SDS011;6774;48.208;10.766;2022-11-03T11:58:03;4.47;;;3.30;;
13406;SDS011;6774;48.208;10.766;2022-11-03T12:00:34;8.73;;;3.50;;
13406;SDS011;6774;48.208;10.766;2022-11-03T12:03:02;4.40;;;4.00;;
13406;SDS011;6774;48.208;10.766;2022-11-03T12:05:33;4.73;;;4.33;;
13406;SDS011;6774;48.208;10.766;2022-11-03T12:08:15;6.00;;;3.13;;
13406;SDS011;6774;48.208;10.766;2022-11-03T12:10:50;6.07;;;4.47;;
13406;SDS011;6774;48.208;10.766;2022-11-03T12:13:36;4.73;;;4.33;;
13406;SDS011;6774;48.208;10.766;2022-11-03T12:16:10;7.80;;;7.20;;
13406;SDS011;6774;48.208;10.766;2022-11-03T12:18:53;6.53;;;6.13;;
13406;SDS011;6774;48.208;10.766;2022-11-03T12:24:30;6.00;;;5.50;;
13406;SDS011;6774;48.208;10.766;2022-11-03T12:27:03;5.60;;;5.20;;
13406;SDS011;6774;48.208;10.766;2022-11-03T12:29:44;7.47;;;5.80;;
13406;SDS011;6774;48.208;10.766;2022-11-03T12:32:14;5.83;;;5.23;;
13406;SDS011;6774;48.208;10.766;2022-11-03T12:34:59;10.53;;;5.67;;
13406;SDS011;6774;48.208;10.766;2022-11-03T12:37:27;5.40;;;4.90;;
13406;SDS011;6774;48.208;10.766;2022-11-03T12:39:55;4.97;;;4.43;;
13406;SDS011;6774;48.208;10.766;2022-11-03T12:42:23;5.33;;;4.93;;
13406;SDS011;6774;48.208;10.766;2022-11-03T12:44:51;4.90;;;4.57;;
13406;SDS011;6774;48.208;10.766;2022-11-03T12:47:20;10.77;;;5.50;;
13406;SDS011;6774;48.208;10.766;2022-11-03T12:49:48;9.07;;;5.27;;
13406;SDS011;6774;48.208;10.766;2022-11-03T12:52:16;7.17;;;5.87;;
13406;SDS011;6774;48.208;10.766;2022-11-03T12:54:43;4.57;;;4.27;;
13406;SDS011;6774;48.208;10.766;2022-11-03T12:57:12;6.27;;;4.10;;
13406;SDS011;6774;48.208;10.766;2022-11-03T12:59:39;4.33;;;4.13;;
13406;SDS011;6774;48.208;10.766;2022-11-03T13:02:07;6.67;;;4.47;;
13406;SDS011;6774;48.208;10.766;2022-11-03T13:04:38;9.30;;;5.13;;
13406;SDS011;6774;48.208;10.766;2022-11-03T13:07:06;3.83;;;3.63;;
13406;SDS011;6774;48.208;10.766;2022-11-03T13:09:34;4.53;;;4.23;;
13406;SDS011;6774;48.208;10.766;2022-11-03T13:12:02;3.83;;;3.63;;
13406;SDS011;6774;48.208;10.766;2022-11-03T13:14:47;4.33;;;4.03;;
13406;SDS011;6774;48.208;10.766;2022-11-03T13:17:15;4.23;;;3.93;;
13406;SDS011;6774;48.208;10.766;2022-11-03T13:19:44;5.73;;;5.20;;
13406;SDS011;6774;48.208;10.766;2022-11-03T13:22:16;3.97;;;3.77;;
13406;SDS011;6774;48.208;10.766;2022-11-03T13:24:44;4.27;;;3.97;;
13406;SDS011;6774;48.208;10.766;2022-11-03T13:27:12;8.07;;;4.33;;
13406;SDS011;6774;48.208;10.766;2022-11-03T13:29:40;4.97;;;4.60;;
13406;SDS011;6774;48.208;10.766;2022-11-03T13:32:08;4.47;;;4.27;;
13406;SDS011;6774;48.208;10.766;2022-11-03T13:34:36;5.10;;;4.80;;
13406;SDS011;6774;48.208;10.766;2022-11-03T13:37:05;4.33;;;3.93;;
13406;SDS011;6774;48.208;10.766;2022-11-03T13:39:33;5.20;;;4.73;;
13406;SDS011;6774;48.208;10.766;2022-11-03T13:42:01;5.17;;;4.77;;
13406;SDS011;6774;48.208;10.766;2022-11-03T13:44:29;4.23;;;3.97;;
13406;SDS011;6774;48.208;10.766;2022-11-03T13:46:57;4.97;;;4.60;;
13406;SDS011;6774;48.208;10.766;2022-11-03T13:49:25;4.40;;;4.20;;
13406;SDS011;6774;48.208;10.766;2022-11-03T13:52:14;4.70;;;4.27;;
13406;SDS011;6774;48.208;10.766;2022-11-03T13:54:41;6.07;;;4.57;;
13406;SDS011;6774;48.208;10.766;2022-11-03T13:57:30;3.53;;;3.33;;
13406;SDS011;6774;48.208;10.766;2022-11-03T14:00:17;4.33;;;4.07;;
13406;SDS011;6774;48.208;10.766;2022-11-03T14:02:45;6.20;;;5.80;;
13406;SDS011;6774;48.208;10.766;2022-11-03T14:05:33;5.83;;;5.40;;
13406;SDS011;6774;48.208;10.766;2022-11-03T14:08:03;5.67;;;5.27;;
13406;SDS011;6774;48.208;10.766;2022-11-03T14:10:32;6.30;;;4.93;;
13406;SDS011;6774;48.208;10.766;2022-11-03T14:12:59;6.37;;;4.87;;
13406;SDS011;6774;48.208;10.766;2022-11-03T14:15:26;6.80;;;6.40;;
13406;SDS011;6774;48.208;10.766;2022-11-03T14:17:54;5.00;;;4.30;;
13406;SDS011;6774;48.208;10.766;2022-11-03T14:20:22;5.37;;;4.97;;
13406;SDS011;6774;48.208;10.766;2022-11-03T14:22:50;6.90;;;5.43;;
13406;SDS011;6774;48.208;10.766;2022-11-03T14:25:19;6.63;;;6.03;;
13406;SDS011;6774;48.208;10.766;2022-11-03T14:27:47;4.80;;;4.50;;
13406;SDS011;6774;48.208;10.766;2022-11-03T14:30:16;5.73;;;5.10;;
13406;SDS011;6774;48.208;10.766;2022-11-03T14:32:44;4.90;;;4.50;;
13406;SDS011;6774;48.208;10.766;2022-11-03T14:35:12;5.63;;;5.17;;
13406;SDS011;6774;48.208;10.766;2022-11-03T14:37:40;5.73;;;5.27;;
13406;SDS011;6774;48.208;10.766;2022-11-03T14:40:08;6.23;;;5.73;;
13406;SDS011;6774;48.208;10.766;2022-11-03T14:42:59;5.80;;;5.00;;
13406;SDS011;6774;48.208;10.766;2022-11-03T14:45:26;3.90;;;3.60;;
13406;SDS011;6774;48.208;10.766;2022-11-03T14:47:54;3.23;;;3.03;;
13406;SDS011;6774;48.208;10.766;2022-11-03T14:50:22;4.70;;;4.30;;
13406;SDS011;6774;48.208;10.766;2022-11-03T14:52:50;5.80;;;5.23;;
13406;SDS011;6774;48.208;10.766;2022-11-03T14:55:25;4.17;;;3.97;;
13406;SDS011;6774;48.208;10.766;2022-11-03T14:57:53;4.53;;;4.23;;
13406;SDS011;6774;48.208;10.766;2022-11-03T15:00:23;8.37;;;5.67;;
13406;SDS011;6774;48.208;10.766;2022-11-03T15:02:51;8.60;;;5.03;;
13406;SDS011;6774;48.208;10.766;2022-11-03T15:05:19;4.53;;;4.00;;
13406;SDS011;6774;48.208;10.766;2022-11-03T15:08:01;5.23;;;4.77;;
13406;SDS011;6774;48.208;10.766;2022-11-03T15:10:29;6.83;;;6.33;;
13406;SDS011;6774;48.208;10.766;2022-11-03T15:12:57;4.10;;;3.80;;
13406;SDS011;6774;48.208;10.766;2022-11-03T15:15:26;4.70;;;4.40;;
13406;SDS011;6774;48.208;10.766;2022-11-03T15:17:54;5.00;;;4.63;;
13406;SDS011;6774;48.208;10.766;2022-11-03T15:20:28;4.37;;;4.17;;
13406;SDS011;6774;48.208;10.766;2022-11-03T15:22:57;4.30;;;3.90;;
13406;SDS011;6774;48.208;10.766;2022-11-03T15:25:45;5.13;;;4.83;;
13406;SDS011;6774;48.208;10.766;2022-11-03T15:28:13;4.90;;;4.60;;
13406;SDS011;6774;48.208;10.766;2022-11-03T15:30:42;3.60;;;3.40;;
13406;SDS011;6774;48.208;10.766;2022-11-03T15:33:10;5.33;;;5.03;;
13406;SDS011;6774;48.208;10.766;2022-11-03T15:35:38;4.60;;;4.30;;
13406;SDS011;6774;48.208;10.766;2022-11-03T15:38:07;4.03;;;3.73;;
13406;SDS011;6774;48.208;10.766;2022-11-03T15:40:35;4.97;;;4.53;;
13406;SDS011;6774;48.208;10.766;2022-11-03T15:43:03;5.23;;;4.93;;
13406;SDS011;6774;48.208;10.766;2022-11-03T15:45:31;4.47;;;4.07;;
13406;SDS011;6774;48.208;10.766;2022-11-03T15:48:00;5.07;;;4.77;;